Time;durP1;ratioP1;P1;durP2;ratioP2;P2;SDS_P1;SDS_P2;PMS_P1;PMS_P2;Temp;Humidity;BMP_temperature;BMP_pressure;BME280_temperature;BME280_humidity;BME280_pressure;Samples;Min_cycle;Max_cycle;Signal;HPM_P1;HPM_P2
2022/10/20 00:01:53;;;;;;;8.05;5.30;;;6.80;99.90;;;;;;5056527;28;20109;-26
2022/10/20 00:04:19;;;;;;;7.43;4.95;;;6.80;99.90;;;;;;5056380;28;20048;-26
2022/10/20 00:06:44;;;;;;;7.13;5.38;;;6.80;99.90;;;;;;5074074;28;20044;-26
2022/10/20 00:09:10;;;;;;;8.82;5.30;;;6.70;99.90;;;;;;5056553;28;20047;-26
2022/10/20 00:11:36;;;;;;;9.35;6.00;;;6.80;99.90;;;;;;5039047;28;20417;-26
2022/10/20 00:14:03;;;;;;;6.38;5.55;;;6.70;99.90;;;;;;5055265;28;20036;-26
2022/10/20 00:16:33;;;;;;;8.80;5.95;;;6.70;99.90;;;;;;5056193;28;20036;-26
2022/10/20 00:18:59;;;;;;;8.30;5.60;;;6.70;99.90;;;;;;5068650;28;20032;-26
2022/10/20 00:21:26;;;;;;;9.68;5.85;;;6.70;99.90;;;;;;5056151;28;20036;-26
2022/10/20 00:23:52;;;;;;;8.90;6.30;;;6.60;99.90;;;;;;5055893;28;20481;-26
2022/10/20 00:26:26;;;;;;;11.32;5.60;;;6.60;99.90;;;;;;5058458;28;20048;-26
2022/10/20 00:28:52;;;;;;;10.15;5.63;;;6.60;99.90;;;;;;5056986;28;20064;-27
2022/10/20 00:31:19;;;;;;;10.35;6.20;;;6.60;99.90;;;;;;5040069;28;20249;-25
2022/10/20 00:33:46;;;;;;;10.82;5.82;;;6.60;99.90;;;;;;5056282;28;20044;-26
2022/10/20 00:36:14;;;;;;;11.45;6.30;;;6.50;99.90;;;;;;5056547;28;20037;-25
2022/10/20 00:38:40;;;;;;;8.65;5.80;;;6.50;99.90;;;;;;5074194;28;20033;-25
2022/10/20 00:41:07;;;;;;;8.63;5.82;;;6.50;99.90;;;;;;5055854;28;20544;-26
2022/10/20 00:43:47;;;;;;;9.10;6.03;;;6.40;99.90;;;;;;5055690;28;20040;-26
2022/10/20 00:46:16;;;;;;;8.68;5.60;;;6.40;99.90;;;;;;5055557;28;20166;-25
2022/10/20 00:48:46;;;;;;;10.48;5.63;;;6.40;99.90;;;;;;5056918;28;20478;-25
2022/10/20 00:51:15;;;;;;;8.35;5.47;;;6.40;99.90;;;;;;5055978;28;20093;-30
2022/10/20 00:53:44;;;;;;;8.30;4.95;;;6.40;99.90;;;;;;5055321;28;20466;-31
2022/10/20 00:56:10;;;;;;;7.97;5.55;;;6.40;99.90;;;;;;5054976;28;20393;-33
2022/10/20 00:58:36;;;;;;;8.23;5.32;;;6.30;99.90;;;;;;5055839;28;20037;-30
2022/10/20 01:01:01;;;;;;;11.27;6.00;;;6.30;99.90;;;;;;5055221;28;20102;-33
2022/10/20 01:03:35;;;;;;;7.10;4.97;;;6.30;99.90;;;;;;5052680;28;20028;-33
2022/10/20 01:06:02;;;;;;;7.75;5.40;;;6.30;99.90;;;;;;5050863;28;20055;-34
2022/10/20 01:08:27;;;;;;;9.23;6.13;;;6.20;99.90;;;;;;5053774;28;20043;-30
2022/10/20 01:11:09;;;;;;;9.32;5.88;;;6.20;99.90;;;;;;5055341;28;20119;-31
2022/10/20 01:13:50;;;;;;;7.53;5.38;;;6.20;99.90;;;;;;5064783;28;20119;-30
2022/10/20 01:16:27;;;;;;;8.82;6.00;;;6.20;99.90;;;;;;5055247;28;20494;-29
2022/10/20 01:19:12;;;;;;;11.05;6.03;;;6.20;99.90;;;;;;5046634;28;20622;-30
2022/10/20 01:21:51;;;;;;;7.15;5.28;;;6.20;99.90;;;;;;5047543;28;20041;-31
2022/10/20 01:24:42;;;;;;;7.70;5.47;;;6.20;99.90;;;;;;5054815;28;20064;-31
2022/10/20 01:27:32;;;;;;;7.53;6.13;;;6.20;99.90;;;;;;5051204;28;20036;-31
2022/10/20 01:30:17;;;;;;;8.55;5.35;;;6.20;99.90;;;;;;5043761;28;20033;-31
2022/10/20 01:32:58;;;;;;;8.20;5.60;;;6.10;99.90;;;;;;5053560;28;20090;-31
2022/10/20 01:35:49;;;;;;;9.50;6.15;;;6.20;99.90;;;;;;5054819;28;20043;-32
2022/10/20 01:38:46;;;;;;;8.15;6.13;;;6.20;99.90;;;;;;5052093;28;20040;-31
2022/10/20 01:41:19;;;;;;;8.23;6.00;;;6.20;99.90;;;;;;5054545;28;20496;-30
2022/10/20 01:43:47;;;;;;;9.57;6.80;;;6.20;99.90;;;;;;5054718;28;20037;-30
2022/10/20 01:46:16;;;;;;;8.43;5.78;;;6.20;99.90;;;;;;5045802;28;20036;-30
2022/10/20 01:48:42;;;;;;;10.00;6.15;;;6.20;99.90;;;;;;5054468;28;20039;-31
2022/10/20 01:51:09;;;;;;;9.38;5.30;;;6.30;99.90;;;;;;5072307;28;20060;-30
2022/10/20 01:53:35;;;;;;;10.07;6.30;;;6.30;99.90;;;;;;5050182;28;20035;-33
2022/10/20 01:56:02;;;;;;;8.38;5.70;;;6.20;99.90;;;;;;5054246;28;20041;-33
2022/10/20 01:58:27;;;;;;;9.75;6.25;;;6.30;99.90;;;;;;5082912;28;20118;-31
2022/10/20 02:00:57;;;;;;;8.15;6.15;;;6.30;99.90;;;;;;5054525;28;20076;-31
2022/10/20 02:03:32;;;;;;;7.85;5.63;;;6.30;99.90;;;;;;5045597;28;20040;-32
2022/10/20 02:06:10;;;;;;;10.52;6.20;;;6.40;99.90;;;;;;5054330;28;20164;-32
2022/10/20 02:08:44;;;;;;;9.75;6.32;;;6.40;99.90;;;;;;5050060;28;20060;-30
2022/10/20 02:11:35;;;;;;;10.23;6.03;;;6.40;99.90;;;;;;5050728;28;20041;-31
2022/10/20 02:14:03;;;;;;;9.63;6.30;;;6.30;99.90;;;;;;5049565;28;20036;-30
2022/10/20 02:16:34;;;;;;;7.38;6.20;;;6.30;99.90;;;;;;5049520;28;20063;-30
2022/10/20 02:19:02;;;;;;;9.07;6.65;;;6.30;99.90;;;;;;5060640;28;20040;-32
2022/10/20 02:21:28;;;;;;;12.65;6.55;;;6.30;99.90;;;;;;5054065;28;20041;-34
2022/10/20 02:23:55;;;;;;;8.82;6.13;;;6.30;99.90;;;;;;5053383;28;20052;-30
2022/10/20 02:26:24;;;;;;;9.77;6.13;;;6.30;99.90;;;;;;5053848;28;20447;-28
2022/10/20 02:28:58;;;;;;;10.95;6.53;;;6.20;99.90;;;;;;5053411;28;20036;-31
2022/10/20 02:31:23;;;;;;;;;;;6.20;99.90;;;;;;5053509;28;20397;-32
2022/10/20 02:33:50;;;;;;;9.60;5.90;;;6.20;99.90;;;;;;5053049;28;19916;-28
2022/10/20 02:36:19;;;;;;;8.80;6.60;;;6.20;99.90;;;;;;5053506;28;20036;-30
2022/10/20 02:38:45;;;;;;;12.68;6.72;;;6.10;99.90;;;;;;5053328;28;20094;-30
2022/10/20 02:41:11;;;;;;;8.55;6.80;;;6.10;99.90;;;;;;5053473;28;20040;-29
2022/10/20 02:43:37;;;;;;;9.70;6.95;;;6.10;99.90;;;;;;5053396;28;20062;-30
2022/10/20 02:46:05;;;;;;;9.77;6.60;;;6.20;99.90;;;;;;5070090;28;20032;-24
2022/10/20 02:48:31;;;;;;;9.25;6.72;;;6.10;99.90;;;;;;5054932;28;20032;-25
2022/10/20 02:50:57;;;;;;;8.25;7.30;;;6.10;99.90;;;;;;5054668;28;20044;-25
2022/10/20 02:53:23;;;;;;;10.25;6.93;;;6.10;99.90;;;;;;5054820;28;20047;-25
2022/10/20 02:55:48;;;;;;;10.70;7.35;;;6.10;99.90;;;;;;5054368;28;20604;-24
2022/10/20 02:58:14;;;;;;;10.88;6.65;;;6.10;99.90;;;;;;5053627;28;20047;-25
2022/10/20 03:00:40;;;;;;;9.88;7.53;;;6.10;99.90;;;;;;5037916;28;20045;-25
2022/10/20 03:03:06;;;;;;;13.98;7.93;;;6.10;99.90;;;;;;5054624;28;20115;-26
2022/10/20 03:05:31;;;;;;;12.30;7.97;;;6.10;99.90;;;;;;5054498;28;20032;-25
2022/10/20 03:07:57;;;;;;;12.68;7.65;;;6.10;99.90;;;;;;5038044;28;20040;-25
2022/10/20 03:10:23;;;;;;;9.88;7.18;;;6.10;99.90;;;;;;5054684;28;20041;-26
2022/10/20 03:12:49;;;;;;;10.60;7.60;;;6.10;99.90;;;;;;5054402;28;20483;-25
2022/10/20 03:15:15;;;;;;;11.05;7.70;;;6.10;99.90;;;;;;5054550;28;20520;-25
2022/10/20 03:17:40;;;;;;;9.63;7.78;;;6.10;99.90;;;;;;5054464;28;20036;-25
2022/10/20 03:20:07;;;;;;;13.73;8.93;;;6.10;99.90;;;;;;5054061;28;20052;-26
2022/10/20 03:22:32;;;;;;;14.23;8.38;;;6.10;99.90;;;;;;5054554;28;20032;-24
2022/10/20 03:24:58;;;;;;;13.10;8.57;;;6.10;99.90;;;;;;5054353;28;20044;-25
2022/10/20 03:27:24;;;;;;;11.30;8.52;;;6.10;99.90;;;;;;5054141;28;20036;-26
2022/10/20 03:29:50;;;;;;;13.05;9.18;;;6.10;99.90;;;;;;5037487;28;20041;-26
2022/10/20 03:32:15;;;;;;;12.90;9.02;;;6.10;99.90;;;;;;5053839;28;20525;-26
2022/10/20 03:34:41;;;;;;;11.73;8.77;;;6.10;99.90;;;;;;5053515;28;20040;-25
2022/10/20 03:37:07;;;;;;;13.57;9.18;;;6.10;99.90;;;;;;5053092;28;20075;-25
2022/10/20 03:39:33;;;;;;;13.13;9.20;;;6.10;99.90;;;;;;5053146;28;20094;-25
2022/10/20 03:41:58;;;;;;;13.02;8.82;;;6.10;99.90;;;;;;5052828;28;20086;-25
2022/10/20 03:44:24;;;;;;;10.68;8.43;;;6.10;99.90;;;;;;5052178;28;20039;-26
2022/10/20 03:46:50;;;;;;;13.90;9.27;;;6.10;99.90;;;;;;5052841;28;20075;-25
2022/10/20 03:49:16;;;;;;;14.05;9.63;;;6.10;99.90;;;;;;5052075;28;20436;-25
2022/10/20 03:51:41;;;;;;;12.90;9.23;;;6.00;99.90;;;;;;5045690;28;20083;-24
2022/10/20 03:54:07;;;;;;;13.10;10.10;;;6.10;99.90;;;;;;5053677;28;20115;-26
2022/10/20 03:56:33;;;;;;;17.55;10.90;;;6.10;99.90;;;;;;5053442;28;20440;-26
2022/10/20 03:58:59;;;;;;;14.95;9.85;;;6.10;99.90;;;;;;5053215;28;20545;-26
2022/10/20 04:01:31;;;;;;;13.40;10.23;;;6.10;99.90;;;;;;5053475;28;20045;-26
2022/10/20 04:03:56;;;;;;;11.73;10.07;;;6.10;99.90;;;;;;5053061;28;20036;-26
2022/10/20 04:06:22;;;;;;;14.00;10.75;;;6.10;99.90;;;;;;5052645;28;20516;-25
2022/10/20 04:08:48;;;;;;;12.27;10.02;;;6.10;99.90;;;;;;5054134;28;20085;-26
2022/10/20 04:11:14;;;;;;;14.15;11.45;;;6.10;99.90;;;;;;5056262;28;20040;-25
2022/10/20 04:13:39;;;;;;;17.25;10.85;;;6.10;99.90;;;;;;5051431;28;20033;-28
2022/10/20 04:16:06;;;;;;;13.93;11.15;;;6.00;99.90;;;;;;5051944;28;20129;-26
2022/10/20 04:18:31;;;;;;;14.57;10.88;;;6.10;99.90;;;;;;5056211;28;20128;-26
2022/10/20 04:20:57;;;;;;;13.93;10.82;;;6.10;99.90;;;;;;5056032;28;20468;-25
2022/10/20 04:23:23;;;;;;;13.77;11.18;;;6.10;99.90;;;;;;5056083;28;20370;-26
2022/10/20 04:25:49;;;;;;;15.20;12.77;;;6.10;99.90;;;;;;5056069;28;20063;-26
2022/10/20 04:28:17;;;;;;;14.75;11.82;;;6.10;99.90;;;;;;5055994;28;20045;-27
2022/10/20 04:30:44;;;;;;;14.45;11.82;;;6.20;99.90;;;;;;5055901;28;20068;-26
2022/10/20 04:33:10;;;;;;;16.13;11.85;;;6.20;99.90;;;;;;5051302;28;20040;-25
2022/10/20 04:35:36;;;;;;;15.43;11.98;;;6.20;99.90;;;;;;5054897;28;20115;-27
2022/10/20 04:38:02;;;;;;;16.45;12.57;;;6.20;99.90;;;;;;5055306;28;20131;-25
2022/10/20 04:40:27;;;;;;;15.93;11.98;;;6.20;99.90;;;;;;5053350;28;20048;-27
2022/10/20 04:42:53;;;;;;;15.82;12.48;;;6.20;99.90;;;;;;5049406;28;20075;-32
2022/10/20 04:45:19;;;;;;;16.65;12.85;;;6.20;99.90;;;;;;5048258;28;20036;-27
2022/10/20 04:47:44;;;;;;;17.38;12.85;;;6.20;99.90;;;;;;5057167;28;20481;-26
2022/10/20 04:50:10;;;;;;;16.02;12.70;;;6.20;99.90;;;;;;5054509;28;20087;-26
2022/10/20 04:52:36;;;;;;;15.32;12.38;;;6.20;99.90;;;;;;5050766;28;20075;-26
2022/10/20 04:55:02;;;;;;;19.40;12.73;;;6.20;99.90;;;;;;5055355;28;20113;-26
2022/10/20 04:57:28;;;;;;;15.90;13.38;;;6.20;99.90;;;;;;5054788;28;20043;-28
2022/10/20 04:59:53;;;;;;;17.52;14.35;;;6.20;99.90;;;;;;5073903;28;20548;-25
2022/10/20 05:02:19;;;;;;;16.40;12.90;;;6.20;99.90;;;;;;5057934;28;20051;-26
2022/10/20 05:04:45;;;;;;;20.33;14.15;;;6.20;99.90;;;;;;5056836;28;20043;-26
2022/10/20 05:07:11;;;;;;;18.10;13.10;;;6.20;99.90;;;;;;5050607;28;20040;-26
2022/10/20 05:09:37;;;;;;;19.02;13.73;;;6.10;99.90;;;;;;5058127;28;20037;-26
2022/10/20 05:12:02;;;;;;;17.33;13.65;;;6.20;99.90;;;;;;5055187;28;20122;-26
2022/10/20 05:14:28;;;;;;;17.15;13.35;;;6.20;99.90;;;;;;5054705;28;20093;-25
2022/10/20 05:16:54;;;;;;;20.00;13.52;;;6.10;99.90;;;;;;5071981;28;20041;-26
2022/10/20 05:19:20;;;;;;;18.83;13.48;;;6.20;99.90;;;;;;5055977;28;20033;-25
2022/10/20 05:21:46;;;;;;;17.60;13.98;;;6.10;99.90;;;;;;5055017;28;20513;-25
2022/10/20 05:24:14;;;;;;;18.38;13.73;;;6.10;99.90;;;;;;5059215;28;20113;-25
2022/10/20 05:26:40;;;;;;;17.42;13.85;;;6.10;99.90;;;;;;5065356;28;20036;-26
2022/10/20 05:29:10;;;;;;;16.17;13.98;;;6.10;99.90;;;;;;5059476;28;20036;-25
2022/10/20 05:31:43;;;;;;;16.70;13.60;;;6.10;99.90;;;;;;5048006;28;20093;-25
2022/10/20 05:34:09;;;;;;;19.30;14.23;;;6.10;99.90;;;;;;5054584;28;20275;-27
2022/10/20 05:36:35;;;;;;;19.08;13.80;;;6.10;99.90;;;;;;5055476;28;20470;-26
2022/10/20 05:39:02;;;;;;;17.42;14.07;;;6.00;99.90;;;;;;5054676;28;20068;-26
2022/10/20 05:41:31;;;;;;;16.92;13.50;;;6.10;99.90;;;;;;5062944;28;20623;-26
2022/10/20 05:43:59;;;;;;;20.02;15.13;;;6.10;99.90;;;;;;5055305;28;20047;-26
2022/10/20 05:46:28;;;;;;;19.70;14.57;;;6.00;99.90;;;;;;5059081;28;20113;-25
2022/10/20 05:48:56;;;;;;;17.15;13.60;;;6.00;99.90;;;;;;5056699;28;20040;-25
2022/10/20 05:51:26;;;;;;;19.00;14.73;;;6.00;99.90;;;;;;5040518;28;20044;-26
2022/10/20 05:53:55;;;;;;;20.27;14.38;;;6.00;99.90;;;;;;5056788;28;20043;-26
2022/10/20 05:56:22;;;;;;;18.77;14.32;;;6.00;99.90;;;;;;5056520;28;20079;-26
2022/10/20 05:58:48;;;;;;;19.25;14.88;;;6.00;99.90;;;;;;5060619;28;20029;-25
2022/10/20 06:01:17;;;;;;;18.73;14.30;;;6.10;99.90;;;;;;5054122;28;20047;-26
2022/10/20 06:03:47;;;;;;;18.00;14.40;;;6.00;99.90;;;;;;5053914;28;20029;-25
2022/10/20 06:06:13;;;;;;;18.70;15.20;;;6.10;99.90;;;;;;5054411;28;20115;-26
2022/10/20 06:08:39;;;;;;;21.02;14.50;;;6.00;99.90;;;;;;5056094;28;20576;-26
2022/10/20 06:11:07;;;;;;;19.58;14.80;;;6.00;99.90;;;;;;5058663;28;20170;-27
2022/10/20 06:13:33;;;;;;;21.10;15.15;;;6.00;99.90;;;;;;5069879;28;20040;-26
2022/10/20 06:16:03;;;;;;;23.83;16.55;;;6.00;99.90;;;;;;5053146;28;20048;-25
2022/10/20 06:18:29;;;;;;;21.42;15.07;;;6.00;99.90;;;;;;5051560;28;20064;-28
2022/10/20 06:21:03;;;;;;;20.48;15.88;;;6.00;99.90;;;;;;5055426;28;20040;-26
2022/10/20 06:23:29;;;;;;;23.25;16.00;;;6.10;99.90;;;;;;5052100;28;20045;-28
2022/10/20 06:26:01;;;;;;;20.77;14.95;;;6.10;99.90;;;;;;5071972;28;20047;-25
2022/10/20 06:28:29;;;;;;;19.75;15.40;;;6.10;99.90;;;;;;5053408;28;20086;-27
2022/10/20 06:30:55;;;;;;;21.00;15.13;;;6.10;99.90;;;;;;5043245;28;20044;-26
2022/10/20 06:33:21;;;;;;;20.15;15.10;;;6.10;99.90;;;;;;5062948;28;20047;-27
2022/10/20 06:35:47;;;;;;;19.30;15.07;;;6.20;99.90;;;;;;5044851;28;20432;-27
2022/10/20 06:38:13;;;;;;;21.25;15.13;;;6.20;99.90;;;;;;5069377;28;20032;-25
2022/10/20 06:40:39;;;;;;;24.17;15.73;;;6.20;99.90;;;;;;5053081;28;20086;-29
2022/10/20 06:43:04;;;;;;;22.67;15.05;;;6.20;99.90;;;;;;5050237;28;20033;-29
2022/10/20 06:45:30;;;;;;;20.38;15.43;;;6.30;99.90;;;;;;5053510;28;20112;-28
2022/10/20 06:47:56;;;;;;;22.45;16.70;;;6.30;99.90;;;;;;5073425;28;20098;-30
2022/10/20 06:50:22;;;;;;;21.92;16.08;;;6.30;99.90;;;;;;5054649;28;20040;-27
2022/10/20 06:52:47;;;;;;;19.67;16.17;;;6.30;99.90;;;;;;5054594;28;20044;-25
2022/10/20 06:55:13;;;;;;;22.02;16.58;;;6.40;99.90;;;;;;5054464;28;20119;-26
2022/10/20 06:57:39;;;;;;;20.48;14.52;;;6.50;99.90;;;;;;5054939;28;20035;-25
2022/10/20 07:00:05;;;;;;;20.45;15.27;;;6.50;99.90;;;;;;5054532;28;20083;-27
2022/10/20 07:02:31;;;;;;;19.65;15.27;;;6.50;99.90;;;;;;5054865;28;20037;-27
2022/10/20 07:04:56;;;;;;;22.33;16.45;;;6.60;99.90;;;;;;5054310;28;20040;-26
2022/10/20 07:07:22;;;;;;;20.13;15.18;;;6.60;99.90;;;;;;5054337;28;20044;-25
2022/10/20 07:09:48;;;;;;;18.42;15.68;;;6.70;99.90;;;;;;5054048;28;20055;-25
2022/10/20 07:12:14;;;;;;;23.23;16.00;;;6.70;99.90;;;;;;5053203;28;20112;-29
2022/10/20 07:14:39;;;;;;;22.83;16.30;;;6.80;99.90;;;;;;5070420;28;20520;-29
2022/10/20 07:17:05;;;;;;;22.35;15.38;;;6.80;99.90;;;;;;5052684;28;20068;-29
2022/10/20 07:19:31;;;;;;;20.38;15.43;;;6.80;99.90;;;;;;5052682;28;20056;-29
2022/10/20 07:21:56;;;;;;;19.88;15.10;;;6.90;99.90;;;;;;5040856;28;20122;-30
2022/10/20 07:24:22;;;;;;;20.85;14.63;;;6.90;99.90;;;;;;5051866;28;20032;-26
2022/10/20 07:26:48;;;;;;;21.30;15.70;;;7.00;99.90;;;;;;5041852;28;20109;-28
2022/10/20 07:29:14;;;;;;;17.45;14.65;;;7.00;99.90;;;;;;5042386;28;20406;-26
2022/10/20 07:31:43;;;;;;;20.73;15.15;;;7.10;99.90;;;;;;5052928;28;20040;-26
2022/10/20 07:34:11;;;;;;;19.88;14.77;;;7.10;99.90;;;;;;5052757;28;20029;-26
2022/10/20 07:36:39;;;;;;;19.38;14.23;;;7.10;99.90;;;;;;5070441;28;20075;-28
2022/10/20 07:39:05;;;;;;;18.75;15.15;;;7.20;99.90;;;;;;5052733;28;20039;-27
2022/10/20 07:41:32;;;;;;;19.88;14.95;;;7.20;99.90;;;;;;5071049;28;20139;-27
2022/10/20 07:43:58;;;;;;;22.20;14.90;;;7.30;99.90;;;;;;5054623;28;20047;-27
2022/10/20 07:46:24;;;;;;;18.02;13.98;;;7.30;99.90;;;;;;5056647;28;20033;-26
2022/10/20 07:48:50;;;;;;;23.17;14.98;;;7.40;99.90;;;;;;5056321;28;20037;-27
2022/10/20 07:51:25;;;;;;;18.25;14.27;;;7.50;99.90;;;;;;5057173;28;20036;-26
2022/10/20 07:53:54;;;;;;;20.20;14.07;;;7.50;99.90;;;;;;5059374;28;20420;-26
2022/10/20 07:56:20;;;;;;;21.02;14.25;;;7.60;99.90;;;;;;5058060;28;20040;-26
2022/10/20 07:58:47;;;;;;;17.83;13.60;;;7.60;99.90;;;;;;5056398;28;20095;-26
2022/10/20 08:01:14;;;;;;;16.27;13.30;;;7.70;99.90;;;;;;5054969;28;20109;-26
2022/10/20 08:03:39;;;;;;;17.27;13.48;;;7.80;99.90;;;;;;5052581;28;20033;-26
2022/10/20 08:06:05;;;;;;;18.15;14.00;;;7.90;99.90;;;;;;5056065;28;20043;-26
2022/10/20 08:08:32;;;;;;;16.85;13.32;;;8.00;99.90;;;;;;5060493;28;20178;-28
2022/10/20 08:10:58;;;;;;;16.98;12.73;;;8.10;99.90;;;;;;5057516;28;20044;-26
2022/10/20 08:13:25;;;;;;;14.93;12.73;;;8.20;99.90;;;;;;5057096;28;20047;-27
2022/10/20 08:15:51;;;;;;;15.68;13.02;;;8.30;99.90;;;;;;5057672;28;20037;-26
2022/10/20 08:18:17;;;;;;;17.55;13.50;;;8.30;99.90;;;;;;5058611;28;20028;-27
2022/10/20 08:20:44;;;;;;;15.60;13.00;;;8.40;99.90;;;;;;5057139;28;20512;-28
2022/10/20 08:23:12;;;;;;;14.27;12.20;;;8.50;99.90;;;;;;5057269;28;20032;-28
2022/10/20 08:25:56;;;;;;;15.57;12.57;;;8.60;99.90;;;;;;5072258;28;20037;-27
2022/10/20 08:28:21;;;;;;;13.80;12.30;;;8.70;99.90;;;;;;5057372;28;20036;-32
2022/10/20 08:30:47;;;;;;;16.45;12.88;;;8.90;99.90;;;;;;5057122;28;20086;-29
2022/10/20 08:33:13;;;;;;;14.38;12.45;;;9.10;99.90;;;;;;5040765;28;20335;-30
2022/10/20 08:35:39;;;;;;;13.73;11.68;;;9.30;99.90;;;;;;5056791;28;20555;-29
2022/10/20 08:38:05;;;;;;;15.57;11.45;;;9.50;99.90;;;;;;5062306;28;20090;-31
2022/10/20 08:40:35;;;;;;;12.57;11.10;;;9.70;99.90;;;;;;5073991;28;20045;-30
2022/10/20 08:43:00;;;;;;;11.88;10.68;;;9.90;99.90;;;;;;5074916;28;20151;-31
2022/10/20 08:45:28;;;;;;;13.35;11.25;;;10.00;99.90;;;;;;5056841;28;20119;-29
2022/10/20 08:47:56;;;;;;;13.70;12.07;;;10.20;99.90;;;;;;5055985;28;20044;-30
2022/10/20 08:50:26;;;;;;;12.70;10.15;;;10.50;99.90;;;;;;5056965;28;20036;-29
2022/10/20 08:52:56;;;;;;;15.30;10.73;;;10.80;99.90;;;;;;5074506;28;20345;-31
2022/10/20 08:55:30;;;;;;;15.27;10.68;;;11.20;99.90;;;;;;5050401;28;20074;-32
2022/10/20 08:58:05;;;;;;;13.23;9.90;;;11.50;99.90;;;;;;5056418;28;20033;-31
2022/10/20 09:00:36;;;;;;;10.77;9.75;;;11.70;99.90;;;;;;5056665;28;20064;-32
2022/10/20 09:03:14;;;;;;;11.10;10.00;;;11.90;99.90;;;;;;5056333;28;20037;-30
2022/10/20 09:05:44;;;;;;;13.85;9.70;;;11.70;99.90;;;;;;5051753;28;20386;-31
2022/10/20 09:08:09;;;;;;;11.27;10.18;;;11.50;99.90;;;;;;5043942;28;20036;-31
2022/10/20 09:10:54;;;;;;;11.38;9.98;;;11.30;99.90;;;;;;5044476;28;20029;-29
2022/10/20 09:13:31;;;;;;;11.00;9.50;;;11.20;99.90;;;;;;5045750;28;20040;-31
2022/10/20 09:16:37;;;;;;;11.98;9.57;;;11.10;99.90;;;;;;5055226;28;20124;-30
2022/10/20 09:19:05;;;;;;;10.77;9.68;;;11.10;99.90;;;;;;5073693;28;20083;-31
2022/10/20 09:21:34;;;;;;;15.40;10.88;;;11.00;99.90;;;;;;5072728;28;20045;-27
2022/10/20 09:24:02;;;;;;;13.15;9.80;;;11.00;99.90;;;;;;5072926;28;20067;-28
2022/10/20 09:26:48;;;;;;;10.38;9.35;;;11.00;99.90;;;;;;5056279;28;20554;-26
2022/10/20 09:29:19;;;;;;;12.02;10.82;;;11.00;99.90;;;;;;5074242;28;20490;-27
2022/10/20 09:31:48;;;;;;;11.48;10.32;;;10.90;99.90;;;;;;5072840;28;20041;-28
2022/10/20 09:34:32;;;;;;;11.15;9.98;;;11.00;99.90;;;;;;5054840;28;20044;-28
2022/10/20 09:37:10;;;;;;;10.88;9.23;;;11.10;99.90;;;;;;5054542;28;20040;-26
2022/10/20 09:39:45;;;;;;;10.85;9.73;;;11.20;99.90;;;;;;5054097;28;20036;-27
2022/10/20 09:42:34;;;;;;;12.95;9.75;;;11.30;99.90;;;;;;5054096;28;20044;-27
2022/10/20 09:45:15;;;;;;;11.95;9.85;;;11.40;99.90;;;;;;5054341;28;20032;-26
2022/10/20 09:47:47;;;;;;;10.73;9.45;;;11.60;99.90;;;;;;5053944;28;20048;-27
2022/10/20 09:50:27;;;;;;;10.35;9.45;;;11.70;99.90;;;;;;5055763;28;20037;-28
2022/10/20 09:52:55;;;;;;;10.93;9.05;;;11.90;99.90;;;;;;5055856;28;20421;-27
2022/10/20 09:55:34;;;;;;;12.50;9.95;;;12.10;99.90;;;;;;5055755;28;20041;-27
2022/10/20 09:58:03;;;;;;;10.63;9.52;;;12.20;99.90;;;;;;5055719;28;20500;-26
2022/10/20 10:00:33;;;;;;;10.48;9.45;;;12.30;99.90;;;;;;5055512;28;20559;-28
2022/10/20 10:03:19;;;;;;;10.35;9.23;;;12.30;99.90;;;;;;5054922;28;20110;-27
2022/10/20 10:05:47;;;;;;;10.23;9.20;;;12.40;99.90;;;;;;5038024;28;20045;-26
2022/10/20 10:08:14;;;;;;;10.48;8.95;;;12.50;99.90;;;;;;5055493;28;20040;-26
2022/10/20 10:10:40;;;;;;;9.95;8.95;;;12.50;99.90;;;;;;5055483;28;20071;-28
2022/10/20 10:13:24;;;;;;;9.77;8.57;;;12.70;99.90;;;;;;5055002;28;20032;-27
2022/10/20 10:16:04;;;;;;;9.65;8.20;;;13.20;99.90;;;;;;5039442;28;20398;-27
2022/10/20 10:18:30;;;;;;;9.00;8.13;;;13.70;99.90;;;;;;5055312;28;20387;-26
2022/10/20 10:21:16;;;;;;;12.30;8.30;;;14.10;99.90;;;;;;5054728;28;20037;-27
2022/10/20 10:24:02;;;;;;;9.43;8.23;;;14.40;99.90;;;;;;5055090;28;20111;-27
2022/10/20 10:26:32;;;;;;;9.05;8.10;;;14.90;99.90;;;;;;5055627;28;20488;-26
2022/10/20 10:28:58;;;;;;;8.93;8.05;;;15.00;99.90;;;;;;5055056;28;20043;-27
2022/10/20 10:31:26;;;;;;;8.70;7.90;;;14.90;99.90;;;;;;5055038;28;20090;-27
2022/10/20 10:34:11;;;;;;;8.85;7.82;;;14.90;99.90;;;;;;5052172;28;20131;-27
2022/10/20 10:36:37;;;;;;;8.88;7.75;;;15.00;99.90;;;;;;5052645;28;20093;-28
2022/10/20 10:39:12;;;;;;;9.00;7.80;;;15.30;99.90;;;;;;5052533;28;20028;-26
2022/10/20 10:42:08;;;;;;;9.52;7.78;;;15.70;99.90;;;;;;5052837;28;20036;-26
2022/10/20 10:45:08;;;;;;;8.32;7.40;;;15.80;99.90;;;;;;5053525;28;20041;-28
2022/10/20 10:47:50;;;;;;;8.73;7.63;;;15.90;99.90;;;;;;5053775;28;20044;-28
2022/10/20 10:50:19;;;;;;;8.80;7.78;;;16.00;99.90;;;;;;5055516;28;20072;-28
2022/10/20 10:52:59;;;;;;;9.43;8.02;;;15.90;99.90;;;;;;5038418;28;20047;-27
2022/10/20 10:55:37;;;;;;;8.73;7.93;;;15.60;99.90;;;;;;5054835;28;20040;-29
2022/10/20 10:58:26;;;;;;;8.63;7.72;;;15.40;99.90;;;;;;5054976;28;20033;-26
2022/10/20 11:01:13;;;;;;;8.88;7.50;;;15.00;99.90;;;;;;5055535;28;20086;-27
2022/10/20 11:04:03;;;;;;;8.52;7.65;;;15.00;99.90;;;;;;5055121;28;20037;-27
2022/10/20 11:06:29;;;;;;;8.52;7.72;;;15.50;99.90;;;;;;5055244;28;20040;-28
2022/10/20 11:08:57;;;;;;;9.48;7.60;;;15.80;99.90;;;;;;5055036;28;20391;-27
2022/10/20 11:11:52;;;;;;;8.40;7.25;;;15.70;99.90;;;;;;5055396;28;20044;-28
2022/10/20 11:14:36;;;;;;;8.43;7.72;;;15.60;99.90;;;;;;4983878;28;20576;-27
2022/10/20 11:17:11;;;;;;;10.73;8.45;;;15.50;99.90;;;;;;5054434;28;20040;-28
2022/10/20 11:19:44;;;;;;;8.75;7.85;;;15.40;99.90;;;;;;5054746;28;20197;-28
2022/10/20 11:22:20;;;;;;;8.98;8.18;;;15.50;99.90;;;;;;5054571;28;20037;-27
2022/10/20 11:25:11;;;;;;;8.60;7.70;;;15.30;99.90;;;;;;5054572;28;20040;-26
2022/10/20 11:27:38;;;;;;;10.90;9.70;;;15.10;99.90;;;;;;5054910;28;20040;-28
2022/10/20 11:30:19;;;;;;;12.90;10.77;;;15.00;99.90;;;;;;5054779;28;20059;-27
2022/10/20 11:32:48;;;;;;;9.98;8.35;;;14.80;99.90;;;;;;5054683;28;20059;-28
2022/10/20 11:35:28;;;;;;;9.15;8.32;;;14.50;99.90;;;;;;5054414;28;20067;-26
2022/10/20 11:38:03;;;;;;;10.15;9.00;;;14.40;99.90;;;;;;5054748;28;20041;-30
2022/10/20 11:40:37;;;;;;;13.32;8.63;;;14.30;99.90;;;;;;5070869;28;20049;-29
2022/10/20 11:43:18;;;;;;;10.18;8.55;;;14.20;99.90;;;;;;5054192;28;20150;-26
2022/10/20 11:45:53;;;;;;;10.68;9.07;;;14.00;99.90;;;;;;5054282;28;20040;-26
2022/10/20 11:48:22;;;;;;;10.55;8.52;;;13.90;99.90;;;;;;5054356;28;20047;-27
2022/10/20 11:50:59;;;;;;;10.48;9.48;;;13.90;99.90;;;;;;5054413;28;20086;-26
2022/10/20 11:53:34;;;;;;;10.43;8.50;;;13.90;99.90;;;;;;5072425;28;20052;-27
2022/10/20 11:56:18;;;;;;;9.43;8.18;;;13.80;99.90;;;;;;5054503;28;20045;-26
2022/10/20 11:59:07;;;;;;;12.52;9.32;;;13.70;99.90;;;;;;5054627;28;20045;-27
2022/10/20 12:02:10;;;;;;;10.13;9.00;;;13.70;99.90;;;;;;5054473;28;20067;-27
2022/10/20 12:04:52;;;;;;;10.73;9.63;;;13.60;99.90;;;;;;5037174;28;20051;-28
2022/10/20 12:07:36;;;;;;;11.57;8.98;;;13.50;99.90;;;;;;5054354;28;20551;-26
2022/10/20 12:10:11;;;;;;;;;;;13.40;99.90;;;;;;5072496;28;20123;-27
2022/10/20 12:13:04;;;;;;;9.68;8.77;;;13.40;99.90;;;;;;5054193;28;20385;-27
2022/10/20 12:15:30;;;;;;;9.90;8.90;;;13.30;99.90;;;;;;5054151;28;20078;-26
2022/10/20 12:18:41;;;;;;;11.52;9.60;;;13.30;99.90;;;;;;5054020;28;20478;-26
2022/10/20 12:21:09;;;;;;;9.90;9.00;;;13.30;99.90;;;;;;5049168;28;20468;-27
2022/10/20 12:23:44;;;;;;;10.60;9.38;;;13.30;99.90;;;;;;5053723;28;20041;-27
2022/10/20 12:26:29;;;;;;;11.23;9.80;;;13.30;99.90;;;;;;5054121;28;20206;-28
2022/10/20 12:28:56;;;;;;;11.95;9.48;;;13.30;99.90;;;;;;5054696;28;20036;-28
2022/10/20 12:31:21;;;;;;;10.30;9.30;;;13.20;99.90;;;;;;5057376;28;20048;-27
2022/10/20 12:33:52;;;;;;;14.68;10.93;;;13.10;99.90;;;;;;5057170;28;20045;-26
2022/10/20 12:36:17;;;;;;;12.25;10.15;;;13.10;99.90;;;;;;5057503;28;20045;-26
2022/10/20 12:38:48;;;;;;;12.40;10.25;;;13.10;99.90;;;;;;5057619;28;20120;-28
2022/10/20 12:41:25;;;;;;;14.50;10.80;;;13.00;99.90;;;;;;5057651;28;20064;-28
2022/10/20 12:43:53;;;;;;;14.98;10.65;;;13.00;99.90;;;;;;5057238;28;20040;-26
2022/10/20 12:46:27;;;;;;;12.88;10.90;;;13.00;99.90;;;;;;5057038;28;20036;-26
2022/10/20 12:48:58;;;;;;;12.20;10.20;;;12.90;99.90;;;;;;5057435;28;20390;-26
2022/10/20 12:51:57;;;;;;;14.57;10.82;;;12.90;99.90;;;;;;5057447;28;20041;-27
2022/10/20 12:54:26;;;;;;;13.35;10.98;;;12.90;99.90;;;;;;5013745;28;20055;-27
2022/10/20 12:56:57;;;;;;;12.10;10.55;;;12.80;99.90;;;;;;5057347;28;20520;-26
2022/10/20 12:59:23;;;;;;;14.88;10.93;;;12.80;99.90;;;;;;5057079;28;20390;-26
2022/10/20 13:02:07;;;;;;;12.82;10.32;;;12.80;99.90;;;;;;5057009;28;20044;-28